sensor_id;sensor_type;location;lat;lon;timestamp;temperature;humidity
13458;DHT22;6801;53.018;11.560;2024-01-30T00:01:52;2.70;81.80
13458;DHT22;6801;53.018;11.560;2024-01-30T00:04:19;2.70;81.90
13458;DHT22;6801;53.018;11.560;2024-01-30T00:06:48;2.70;81.90
13458;DHT22;6801;53.018;11.560;2024-01-30T00:09:14;2.70;81.90
13458;DHT22;6801;53.018;11.560;2024-01-30T00:11:41;2.70;81.90
13458;DHT22;6801;53.018;11.560;2024-01-30T00:14:08;2.70;81.90
13458;DHT22;6801;53.018;11.560;2024-01-30T00:16:35;2.70;81.90
13458;DHT22;6801;53.018;11.560;2024-01-30T00:19:03;2.60;81.90
13458;DHT22;6801;53.018;11.560;2024-01-30T00:21:30;2.60;81.90
13458;DHT22;6801;53.018;11.560;2024-01-30T00:23:58;2.60;82.00
13458;DHT22;6801;53.018;11.560;2024-01-30T00:26:25;2.60;82.10
13458;DHT22;6801;53.018;11.560;2024-01-30T00:28:52;2.60;82.00
13458;DHT22;6801;53.018;11.560;2024-01-30T00:31:19;2.60;82.00
13458;DHT22;6801;53.018;11.560;2024-01-30T00:33:46;2.60;82.00
13458;DHT22;6801;53.018;11.560;2024-01-30T00:36:13;2.60;81.90
13458;DHT22;6801;53.018;11.560;2024-01-30T00:38:40;2.60;81.90
13458;DHT22;6801;53.018;11.560;2024-01-30T00:41:09;2.60;81.90
13458;DHT22;6801;53.018;11.560;2024-01-30T00:43:36;2.50;81.90
13458;DHT22;6801;53.018;11.560;2024-01-30T00:46:03;2.60;81.90
13458;DHT22;6801;53.018;11.560;2024-01-30T00:48:30;2.50;81.90
13458;DHT22;6801;53.018;11.560;2024-01-30T00:50:58;2.50;81.90
13458;DHT22;6801;53.018;11.560;2024-01-30T00:53:25;2.50;81.90
13458;DHT22;6801;53.018;11.560;2024-01-30T00:55:52;2.50;81.80
13458;DHT22;6801;53.018;11.560;2024-01-30T00:58:21;2.50;81.90
13458;DHT22;6801;53.018;11.560;2024-01-30T01:00:48;2.40;81.90
13458;DHT22;6801;53.018;11.560;2024-01-30T01:03:15;2.40;82.00
13458;DHT22;6801;53.018;11.560;2024-01-30T01:05:42;2.50;82.10
13458;DHT22;6801;53.018;11.560;2024-01-30T01:08:09;2.50;82.10
13458;DHT22;6801;53.018;11.560;2024-01-30T01:10:36;2.50;82.20
13458;DHT22;6801;53.018;11.560;2024-01-30T01:13:03;2.50;82.20
13458;DHT22;6801;53.018;11.560;2024-01-30T01:15:31;2.50;82.20
13458;DHT22;6801;53.018;11.560;2024-01-30T01:17:58;2.50;82.10
13458;DHT22;6801;53.018;11.560;2024-01-30T01:20:25;2.40;82.10
13458;DHT22;6801;53.018;11.560;2024-01-30T01:22:52;2.50;82.10
13458;DHT22;6801;53.018;11.560;2024-01-30T01:25:19;2.50;82.20
13458;DHT22;6801;53.018;11.560;2024-01-30T01:27:46;2.50;82.20
13458;DHT22;6801;53.018;11.560;2024-01-30T01:30:17;2.40;82.20
13458;DHT22;6801;53.018;11.560;2024-01-30T01:32:48;2.40;82.20
13458;DHT22;6801;53.018;11.560;2024-01-30T01:35:21;2.40;82.20
13458;DHT22;6801;53.018;11.560;2024-01-30T01:37:48;2.40;82.30
13458;DHT22;6801;53.018;11.560;2024-01-30T01:40:21;2.40;82.30
13458;DHT22;6801;53.018;11.560;2024-01-30T01:42:49;2.40;82.30
13458;DHT22;6801;53.018;11.560;2024-01-30T01:45:17;2.40;82.40
13458;DHT22;6801;53.018;11.560;2024-01-30T01:47:49;2.40;82.40
13458;DHT22;6801;53.018;11.560;2024-01-30T01:50:18;2.40;82.40
13458;DHT22;6801;53.018;11.560;2024-01-30T01:52:47;2.50;82.40
13458;DHT22;6801;53.018;11.560;2024-01-30T01:55:14;2.40;82.40
13458;DHT22;6801;53.018;11.560;2024-01-30T01:57:43;2.40;82.30
13458;DHT22;6801;53.018;11.560;2024-01-30T02:00:10;2.40;82.20
13458;DHT22;6801;53.018;11.560;2024-01-30T02:02:39;2.30;82.20
13458;DHT22;6801;53.018;11.560;2024-01-30T02:05:08;2.30;82.20
13458;DHT22;6801;53.018;11.560;2024-01-30T02:07:35;2.30;82.20
13458;DHT22;6801;53.018;11.560;2024-01-30T02:10:02;2.40;82.20
13458;DHT22;6801;53.018;11.560;2024-01-30T02:12:30;2.30;82.20
13458;DHT22;6801;53.018;11.560;2024-01-30T02:14:57;2.30;82.20
13458;DHT22;6801;53.018;11.560;2024-01-30T02:17:24;2.30;82.20
13458;DHT22;6801;53.018;11.560;2024-01-30T02:19:52;2.30;82.10
13458;DHT22;6801;53.018;11.560;2024-01-30T02:22:20;2.30;82.10
13458;DHT22;6801;53.018;11.560;2024-01-30T02:24:48;2.20;82.20
13458;DHT22;6801;53.018;11.560;2024-01-30T02:27:15;2.20;82.20
13458;DHT22;6801;53.018;11.560;2024-01-30T02:29:42;2.20;82.30
13458;DHT22;6801;53.018;11.560;2024-01-30T02:32:09;2.20;82.50
13458;DHT22;6801;53.018;11.560;2024-01-30T02:34:35;2.30;82.50
13458;DHT22;6801;53.018;11.560;2024-01-30T02:37:02;2.20;82.50
13458;DHT22;6801;53.018;11.560;2024-01-30T02:39:31;2.20;82.50
13458;DHT22;6801;53.018;11.560;2024-01-30T02:41:58;2.20;82.50
13458;DHT22;6801;53.018;11.560;2024-01-30T02:44:25;2.20;82.50
13458;DHT22;6801;53.018;11.560;2024-01-30T02:46:51;2.20;82.50
13458;DHT22;6801;53.018;11.560;2024-01-30T02:49:19;2.20;82.50
13458;DHT22;6801;53.018;11.560;2024-01-30T02:51:46;2.20;82.40
13458;DHT22;6801;53.018;11.560;2024-01-30T02:54:13;2.20;82.40
13458;DHT22;6801;53.018;11.560;2024-01-30T02:56:42;2.20;82.40
13458;DHT22;6801;53.018;11.560;2024-01-30T02:59:09;2.20;82.40
13458;DHT22;6801;53.018;11.560;2024-01-30T03:01:42;2.20;82.50
13458;DHT22;6801;53.018;11.560;2024-01-30T03:04:09;2.20;82.50
13458;DHT22;6801;53.018;11.560;2024-01-30T03:06:37;2.10;82.50
13458;DHT22;6801;53.018;11.560;2024-01-30T03:09:03;2.10;82.60
13458;DHT22;6801;53.018;11.560;2024-01-30T03:11:31;2.20;82.60
13458;DHT22;6801;53.018;11.560;2024-01-30T03:13:59;2.20;82.60
13458;DHT22;6801;53.018;11.560;2024-01-30T03:16:26;2.10;82.60
13458;DHT22;6801;53.018;11.560;2024-01-30T03:18:53;2.10;82.60
13458;DHT22;6801;53.018;11.560;2024-01-30T03:21:19;2.10;82.70
13458;DHT22;6801;53.018;11.560;2024-01-30T03:23:47;2.10;82.80
13458;DHT22;6801;53.018;11.560;2024-01-30T03:26:14;2.10;82.80
13458;DHT22;6801;53.018;11.560;2024-01-30T03:28:41;2.20;82.80
13458;DHT22;6801;53.018;11.560;2024-01-30T03:31:10;2.10;82.90
13458;DHT22;6801;53.018;11.560;2024-01-30T03:33:37;2.10;82.90
13458;DHT22;6801;53.018;11.560;2024-01-30T03:36:05;2.20;82.90
13458;DHT22;6801;53.018;11.560;2024-01-30T03:38:32;2.10;82.90
13458;DHT22;6801;53.018;11.560;2024-01-30T03:40:59;2.10;82.90
13458;DHT22;6801;53.018;11.560;2024-01-30T03:43:26;2.10;82.90
13458;DHT22;6801;53.018;11.560;2024-01-30T03:45:53;2.10;82.90
13458;DHT22;6801;53.018;11.560;2024-01-30T03:48:21;2.10;83.00
13458;DHT22;6801;53.018;11.560;2024-01-30T03:50:48;2.10;83.00
13458;DHT22;6801;53.018;11.560;2024-01-30T03:53:15;2.10;83.00
13458;DHT22;6801;53.018;11.560;2024-01-30T03:55:42;2.10;83.00
13458;DHT22;6801;53.018;11.560;2024-01-30T03:58:09;2.20;83.00
13458;DHT22;6801;53.018;11.560;2024-01-30T04:00:36;2.20;83.00
13458;DHT22;6801;53.018;11.560;2024-01-30T04:03:03;2.20;83.00
13458;DHT22;6801;53.018;11.560;2024-01-30T04:05:32;2.20;83.00
13458;DHT22;6801;53.018;11.560;2024-01-30T04:07:59;2.10;83.00
13458;DHT22;6801;53.018;11.560;2024-01-30T04:10:26;2.20;83.00
13458;DHT22;6801;53.018;11.560;2024-01-30T04:12:53;2.10;83.10
13458;DHT22;6801;53.018;11.560;2024-01-30T04:15:21;2.10;83.20
13458;DHT22;6801;53.018;11.560;2024-01-30T04:17:48;2.10;83.20
13458;DHT22;6801;53.018;11.560;2024-01-30T04:20:15;2.20;83.20
13458;DHT22;6801;53.018;11.560;2024-01-30T04:22:44;2.20;83.30
13458;DHT22;6801;53.018;11.560;2024-01-30T04:25:12;2.20;83.40
13458;DHT22;6801;53.018;11.560;2024-01-30T04:27:39;2.20;83.40
13458;DHT22;6801;53.018;11.560;2024-01-30T04:30:07;2.20;83.50
13458;DHT22;6801;53.018;11.560;2024-01-30T04:32:35;2.20;83.50
13458;DHT22;6801;53.018;11.560;2024-01-30T04:35:02;2.20;83.50
13458;DHT22;6801;53.018;11.560;2024-01-30T04:37:29;2.20;83.40
13458;DHT22;6801;53.018;11.560;2024-01-30T04:39:58;2.20;83.40
13458;DHT22;6801;53.018;11.560;2024-01-30T04:42:25;2.20;83.40
13458;DHT22;6801;53.018;11.560;2024-01-30T04:44:52;2.10;83.50
13458;DHT22;6801;53.018;11.560;2024-01-30T04:47:18;2.20;83.60
13458;DHT22;6801;53.018;11.560;2024-01-30T04:49:45;2.20;83.70
13458;DHT22;6801;53.018;11.560;2024-01-30T04:52:12;2.10;83.60
13458;DHT22;6801;53.018;11.560;2024-01-30T04:54:39;2.20;83.70
13458;DHT22;6801;53.018;11.560;2024-01-30T04:57:08;2.20;83.70
13458;DHT22;6801;53.018;11.560;2024-01-30T04:59:37;2.20;83.70
13458;DHT22;6801;53.018;11.560;2024-01-30T05:02:04;2.20;83.70
13458;DHT22;6801;53.018;11.560;2024-01-30T05:04:32;2.20;83.70
13458;DHT22;6801;53.018;11.560;2024-01-30T05:06:59;2.20;83.70
13458;DHT22;6801;53.018;11.560;2024-01-30T05:09:26;2.20;83.70
13458;DHT22;6801;53.018;11.560;2024-01-30T05:11:53;2.20;83.70
13458;DHT22;6801;53.018;11.560;2024-01-30T05:14:22;2.20;83.70
13458;DHT22;6801;53.018;11.560;2024-01-30T05:16:49;2.20;83.80
13458;DHT22;6801;53.018;11.560;2024-01-30T05:19:16;2.20;83.90
13458;DHT22;6801;53.018;11.560;2024-01-30T05:21:43;2.20;83.90
13458;DHT22;6801;53.018;11.560;2024-01-30T05:24:10;2.20;83.80
13458;DHT22;6801;53.018;11.560;2024-01-30T05:26:37;2.10;83.80
13458;DHT22;6801;53.018;11.560;2024-01-30T05:29:04;2.20;83.70
13458;DHT22;6801;53.018;11.560;2024-01-30T05:31:32;2.20;83.70
13458;DHT22;6801;53.018;11.560;2024-01-30T05:33:59;2.20;83.70
13458;DHT22;6801;53.018;11.560;2024-01-30T05:36:26;2.20;83.60
13458;DHT22;6801;53.018;11.560;2024-01-30T05:38:53;2.20;83.70
13458;DHT22;6801;53.018;11.560;2024-01-30T05:41:20;2.10;83.70
13458;DHT22;6801;53.018;11.560;2024-01-30T05:43:47;2.20;83.70
13458;DHT22;6801;53.018;11.560;2024-01-30T05:46:14;2.10;83.70
13458;DHT22;6801;53.018;11.560;2024-01-30T05:48:42;2.20;83.70
13458;DHT22;6801;53.018;11.560;2024-01-30T05:51:10;2.10;83.70
13458;DHT22;6801;53.018;11.560;2024-01-30T05:53:37;2.10;83.60
13458;DHT22;6801;53.018;11.560;2024-01-30T05:56:05;2.10;83.60
13458;DHT22;6801;53.018;11.560;2024-01-30T05:58:32;2.10;83.60
13458;DHT22;6801;53.018;11.560;2024-01-30T06:00:59;2.10;83.50
13458;DHT22;6801;53.018;11.560;2024-01-30T06:03:26;2.10;83.50
13458;DHT22;6801;53.018;11.560;2024-01-30T06:05:54;2.10;83.50
13458;DHT22;6801;53.018;11.560;2024-01-30T06:08:21;2.10;83.50
13458;DHT22;6801;53.018;11.560;2024-01-30T06:10:48;2.10;83.40
13458;DHT22;6801;53.018;11.560;2024-01-30T06:13:15;2.10;83.40
13458;DHT22;6801;53.018;11.560;2024-01-30T06:15:42;2.10;83.40
13458;DHT22;6801;53.018;11.560;2024-01-30T06:18:09;2.10;83.50
13458;DHT22;6801;53.018;11.560;2024-01-30T06:20:36;2.10;83.50
13458;DHT22;6801;53.018;11.560;2024-01-30T06:23:04;2.10;83.50
13458;DHT22;6801;53.018;11.560;2024-01-30T06:25:31;2.00;83.40
13458;DHT22;6801;53.018;11.560;2024-01-30T06:27:58;2.10;83.50
13458;DHT22;6801;53.018;11.560;2024-01-30T06:30:25;2.10;83.50
13458;DHT22;6801;53.018;11.560;2024-01-30T06:32:52;2.00;83.50
13458;DHT22;6801;53.018;11.560;2024-01-30T06:35:19;2.00;83.50
13458;DHT22;6801;53.018;11.560;2024-01-30T06:37:47;2.00;83.50
13458;DHT22;6801;53.018;11.560;2024-01-30T06:40:15;2.00;83.60
13458;DHT22;6801;53.018;11.560;2024-01-30T06:42:42;2.00;83.60
13458;DHT22;6801;53.018;11.560;2024-01-30T06:45:09;2.00;83.60
13458;DHT22;6801;53.018;11.560;2024-01-30T06:47:36;2.00;83.60
13458;DHT22;6801;53.018;11.560;2024-01-30T06:50:04;2.00;83.60
13458;DHT22;6801;53.018;11.560;2024-01-30T06:52:31;2.00;83.60
13458;DHT22;6801;53.018;11.560;2024-01-30T06:54:58;2.00;83.60
13458;DHT22;6801;53.018;11.560;2024-01-30T06:57:26;2.00;83.50
13458;DHT22;6801;53.018;11.560;2024-01-30T06:59:53;2.00;83.50
13458;DHT22;6801;53.018;11.560;2024-01-30T07:02:20;2.00;83.50
13458;DHT22;6801;53.018;11.560;2024-01-30T07:04:47;2.00;83.50
13458;DHT22;6801;53.018;11.560;2024-01-30T07:07:15;2.00;83.40
13458;DHT22;6801;53.018;11.560;2024-01-30T07:09:42;2.00;83.40
13458;DHT22;6801;53.018;11.560;2024-01-30T07:12:09;1.90;83.30
13458;DHT22;6801;53.018;11.560;2024-01-30T07:14:37;1.90;83.40
13458;DHT22;6801;53.018;11.560;2024-01-30T07:17:04;1.90;83.40
13458;DHT22;6801;53.018;11.560;2024-01-30T07:19:31;1.90;83.40
13458;DHT22;6801;53.018;11.560;2024-01-30T07:22:00;1.90;83.40
13458;DHT22;6801;53.018;11.560;2024-01-30T07:24:27;1.90;83.40
13458;DHT22;6801;53.018;11.560;2024-01-30T07:26:54;1.90;83.40
13458;DHT22;6801;53.018;11.560;2024-01-30T07:29:21;1.90;83.40
13458;DHT22;6801;53.018;11.560;2024-01-30T07:31:49;1.90;83.50
13458;DHT22;6801;53.018;11.560;2024-01-30T07:34:16;1.80;83.50
13458;DHT22;6801;53.018;11.560;2024-01-30T07:36:43;1.90;83.50
13458;DHT22;6801;53.018;11.560;2024-01-30T07:39:10;1.90;83.50
13458;DHT22;6801;53.018;11.560;2024-01-30T07:41:37;1.90;83.50
13458;DHT22;6801;53.018;11.560;2024-01-30T07:44:04;1.80;83.50
13458;DHT22;6801;53.018;11.560;2024-01-30T07:46:31;1.80;83.50
13458;DHT22;6801;53.018;11.560;2024-01-30T07:48:59;1.80;83.50
13458;DHT22;6801;53.018;11.560;2024-01-30T07:51:27;1.90;83.50
13458;DHT22;6801;53.018;11.560;2024-01-30T07:53:57;1.80;83.50
13458;DHT22;6801;53.018;11.560;2024-01-30T07:56:24;1.80;83.50
13458;DHT22;6801;53.018;11.560;2024-01-30T07:58:51;1.80;83.60
13458;DHT22;6801;53.018;11.560;2024-01-30T08:01:18;1.80;83.60
13458;DHT22;6801;53.018;11.560;2024-01-30T08:03:45;1.90;83.70
13458;DHT22;6801;53.018;11.560;2024-01-30T08:06:14;1.90;83.70
13458;DHT22;6801;53.018;11.560;2024-01-30T08:08:41;1.90;83.70
13458;DHT22;6801;53.018;11.560;2024-01-30T08:11:08;1.90;83.70
13458;DHT22;6801;53.018;11.560;2024-01-30T08:13:35;1.90;83.70
13458;DHT22;6801;53.018;11.560;2024-01-30T08:16:01;2.00;83.80
13458;DHT22;6801;53.018;11.560;2024-01-30T08:18:29;1.90;83.80
13458;DHT22;6801;53.018;11.560;2024-01-30T08:20:56;1.90;83.80
13458;DHT22;6801;53.018;11.560;2024-01-30T08:23:23;2.00;83.80
13458;DHT22;6801;53.018;11.560;2024-01-30T08:25:50;2.00;83.90
13458;DHT22;6801;53.018;11.560;2024-01-30T08:28:17;2.00;83.80
13458;DHT22;6801;53.018;11.560;2024-01-30T08:30:44;2.00;83.80
13458;DHT22;6801;53.018;11.560;2024-01-30T08:33:11;2.00;83.80
13458;DHT22;6801;53.018;11.560;2024-01-30T08:35:38;2.00;83.80
13458;DHT22;6801;53.018;11.560;2024-01-30T08:38:05;2.00;83.80
13458;DHT22;6801;53.018;11.560;2024-01-30T08:40:33;2.10;83.70
13458;DHT22;6801;53.018;11.560;2024-01-30T08:43:00;2.00;83.70
13458;DHT22;6801;53.018;11.560;2024-01-30T08:45:28;2.10;83.70
13458;DHT22;6801;53.018;11.560;2024-01-30T08:47:56;2.10;83.70
13458;DHT22;6801;53.018;11.560;2024-01-30T08:50:23;2.10;83.70
13458;DHT22;6801;53.018;11.560;2024-01-30T08:52:50;2.10;83.70
13458;DHT22;6801;53.018;11.560;2024-01-30T08:55:17;2.10;83.70
13458;DHT22;6801;53.018;11.560;2024-01-30T08:57:45;2.10;83.60
13458;DHT22;6801;53.018;11.560;2024-01-30T09:00:13;2.20;83.60
13458;DHT22;6801;53.018;11.560;2024-01-30T09:02:40;2.20;83.60
13458;DHT22;6801;53.018;11.560;2024-01-30T09:05:07;2.20;83.60
13458;DHT22;6801;53.018;11.560;2024-01-30T09:07:34;2.20;83.60
13458;DHT22;6801;53.018;11.560;2024-01-30T09:10:02;2.20;83.60
13458;DHT22;6801;53.018;11.560;2024-01-30T09:12:29;2.30;83.60
13458;DHT22;6801;53.018;11.560;2024-01-30T09:14:58;2.30;83.60
13458;DHT22;6801;53.018;11.560;2024-01-30T09:17:25;2.30;83.60
13458;DHT22;6801;53.018;11.560;2024-01-30T09:19:52;2.30;83.60
13458;DHT22;6801;53.018;11.560;2024-01-30T09:22:19;2.40;83.60
13458;DHT22;6801;53.018;11.560;2024-01-30T09:24:46;2.40;83.60
13458;DHT22;6801;53.018;11.560;2024-01-30T09:27:13;2.40;83.70
13458;DHT22;6801;53.018;11.560;2024-01-30T09:29:40;2.40;83.70
13458;DHT22;6801;53.018;11.560;2024-01-30T09:32:08;2.50;83.80
13458;DHT22;6801;53.018;11.560;2024-01-30T09:34:35;2.50;83.80
13458;DHT22;6801;53.018;11.560;2024-01-30T09:37:03;2.50;84.00
13458;DHT22;6801;53.018;11.560;2024-01-30T09:39:30;2.60;84.00
13458;DHT22;6801;53.018;11.560;2024-01-30T09:42:02;2.60;84.10
13458;DHT22;6801;53.018;11.560;2024-01-30T09:44:32;2.60;84.20
13458;DHT22;6801;53.018;11.560;2024-01-30T09:47:01;2.60;84.20
13458;DHT22;6801;53.018;11.560;2024-01-30T09:49:32;2.60;84.10
13458;DHT22;6801;53.018;11.560;2024-01-30T09:51:59;2.60;84.20
13458;DHT22;6801;53.018;11.560;2024-01-30T09:54:29;2.70;84.20
13458;DHT22;6801;53.018;11.560;2024-01-30T09:56:57;2.70;84.20
13458;DHT22;6801;53.018;11.560;2024-01-30T09:59:24;2.70;84.20
13458;DHT22;6801;53.018;11.560;2024-01-30T10:01:51;2.80;84.20
13458;DHT22;6801;53.018;11.560;2024-01-30T10:04:18;2.80;84.20
13458;DHT22;6801;53.018;11.560;2024-01-30T10:06:47;2.80;84.20
13458;DHT22;6801;53.018;11.560;2024-01-30T10:09:15;2.90;84.30
13458;DHT22;6801;53.018;11.560;2024-01-30T10:11:42;2.90;84.30
13458;DHT22;6801;53.018;11.560;2024-01-30T10:14:09;3.00;84.40
13458;DHT22;6801;53.018;11.560;2024-01-30T10:16:36;3.00;84.40
13458;DHT22;6801;53.018;11.560;2024-01-30T10:19:03;3.00;84.50
13458;DHT22;6801;53.018;11.560;2024-01-30T10:21:30;3.10;84.50
13458;DHT22;6801;53.018;11.560;2024-01-30T10:23:59;3.10;84.50
13458;DHT22;6801;53.018;11.560;2024-01-30T10:26:26;3.10;84.50
13458;DHT22;6801;53.018;11.560;2024-01-30T10:28:55;3.20;84.50
13458;DHT22;6801;53.018;11.560;2024-01-30T10:31:22;3.20;84.50
13458;DHT22;6801;53.018;11.560;2024-01-30T10:33:49;3.30;84.50
13458;DHT22;6801;53.018;11.560;2024-01-30T10:36:17;3.30;84.50
13458;DHT22;6801;53.018;11.560;2024-01-30T10:38:45;3.40;84.50
13458;DHT22;6801;53.018;11.560;2024-01-30T10:41:19;3.50;84.60
13458;DHT22;6801;53.018;11.560;2024-01-30T10:43:57;3.50;84.70
13458;DHT22;6801;53.018;11.560;2024-01-30T10:46:31;3.60;84.70
13458;DHT22;6801;53.018;11.560;2024-01-30T10:48:59;3.60;84.80
13458;DHT22;6801;53.018;11.560;2024-01-30T10:51:27;3.70;84.80
13458;DHT22;6801;53.018;11.560;2024-01-30T10:53:55;3.80;84.90
13458;DHT22;6801;53.018;11.560;2024-01-30T10:56:24;3.80;84.80
13458;DHT22;6801;53.018;11.560;2024-01-30T10:58:52;3.90;85.00
13458;DHT22;6801;53.018;11.560;2024-01-30T11:01:21;4.00;85.00
13458;DHT22;6801;53.018;11.560;2024-01-30T11:03:49;4.00;84.90
13458;DHT22;6801;53.018;11.560;2024-01-30T11:06:17;4.10;85.10
13458;DHT22;6801;53.018;11.560;2024-01-30T11:08:45;4.10;85.20
13458;DHT22;6801;53.018;11.560;2024-01-30T11:11:12;4.20;85.30
13458;DHT22;6801;53.018;11.560;2024-01-30T11:13:40;4.20;85.40
13458;DHT22;6801;53.018;11.560;2024-01-30T11:16:11;4.30;85.40
13458;DHT22;6801;53.018;11.560;2024-01-30T11:18:38;4.40;85.50
13458;DHT22;6801;53.018;11.560;2024-01-30T11:21:06;4.50;85.60
13458;DHT22;6801;53.018;11.560;2024-01-30T11:23:34;4.50;85.60
13458;DHT22;6801;53.018;11.560;2024-01-30T11:26:01;4.70;85.70
13458;DHT22;6801;53.018;11.560;2024-01-30T11:28:32;4.80;85.80
13458;DHT22;6801;53.018;11.560;2024-01-30T11:31:05;4.80;85.90
13458;DHT22;6801;53.018;11.560;2024-01-30T11:33:34;4.90;85.90
13458;DHT22;6801;53.018;11.560;2024-01-30T11:36:01;4.90;85.90
13458;DHT22;6801;53.018;11.560;2024-01-30T11:38:29;5.00;85.90
13458;DHT22;6801;53.018;11.560;2024-01-30T11:40:56;5.00;85.80
13458;DHT22;6801;53.018;11.560;2024-01-30T11:43:23;5.10;85.80
13458;DHT22;6801;53.018;11.560;2024-01-30T11:45:51;5.20;85.90
13458;DHT22;6801;53.018;11.560;2024-01-30T11:48:19;5.30;85.80
13458;DHT22;6801;53.018;11.560;2024-01-30T11:50:46;5.30;85.70
13458;DHT22;6801;53.018;11.560;2024-01-30T11:53:13;5.40;85.70
13458;DHT22;6801;53.018;11.560;2024-01-30T11:55:40;5.50;85.60
13458;DHT22;6801;53.018;11.560;2024-01-30T11:58:08;5.50;85.60
13458;DHT22;6801;53.018;11.560;2024-01-30T12:00:35;5.60;85.70
13458;DHT22;6801;53.018;11.560;2024-01-30T12:03:03;5.60;85.70
13458;DHT22;6801;53.018;11.560;2024-01-30T12:05:33;5.60;85.70
13458;DHT22;6801;53.018;11.560;2024-01-30T12:08:01;5.70;85.80
13458;DHT22;6801;53.018;11.560;2024-01-30T12:10:28;5.70;85.80
13458;DHT22;6801;53.018;11.560;2024-01-30T12:12:55;5.80;85.80
13458;DHT22;6801;53.018;11.560;2024-01-30T12:15:23;5.90;85.90
13458;DHT22;6801;53.018;11.560;2024-01-30T12:17:50;6.00;85.90
13458;DHT22;6801;53.018;11.560;2024-01-30T12:20:18;6.10;86.00
13458;DHT22;6801;53.018;11.560;2024-01-30T12:22:48;6.10;86.10
13458;DHT22;6801;53.018;11.560;2024-01-30T12:25:16;6.30;86.20
13458;DHT22;6801;53.018;11.560;2024-01-30T12:27:44;6.40;86.20
13458;DHT22;6801;53.018;11.560;2024-01-30T12:30:13;6.50;86.20
13458;DHT22;6801;53.018;11.560;2024-01-30T12:32:42;6.60;86.00
13458;DHT22;6801;53.018;11.560;2024-01-30T12:35:10;6.70;86.10
13458;DHT22;6801;53.018;11.560;2024-01-30T12:37:37;6.70;85.90
13458;DHT22;6801;53.018;11.560;2024-01-30T12:40:07;6.80;85.80
13458;DHT22;6801;53.018;11.560;2024-01-30T12:42:35;6.80;85.50
13458;DHT22;6801;53.018;11.560;2024-01-30T12:45:03;6.90;85.50
13458;DHT22;6801;53.018;11.560;2024-01-30T12:47:30;7.00;85.40
13458;DHT22;6801;53.018;11.560;2024-01-30T12:49:57;7.00;85.20
13458;DHT22;6801;53.018;11.560;2024-01-30T12:52:24;7.00;85.10
13458;DHT22;6801;53.018;11.560;2024-01-30T12:54:51;7.00;85.10
13458;DHT22;6801;53.018;11.560;2024-01-30T12:57:20;7.10;85.00
13458;DHT22;6801;53.018;11.560;2024-01-30T12:59:47;7.10;85.00
13458;DHT22;6801;53.018;11.560;2024-01-30T13:02:15;7.20;85.00
13458;DHT22;6801;53.018;11.560;2024-01-30T13:04:43;7.20;85.00
13458;DHT22;6801;53.018;11.560;2024-01-30T13:07:10;7.30;84.90
13458;DHT22;6801;53.018;11.560;2024-01-30T13:09:37;7.30;84.80
13458;DHT22;6801;53.018;11.560;2024-01-30T13:12:05;7.30;84.90
13458;DHT22;6801;53.018;11.560;2024-01-30T13:14:33;7.40;84.90
13458;DHT22;6801;53.018;11.560;2024-01-30T13:17:00;7.40;84.80
13458;DHT22;6801;53.018;11.560;2024-01-30T13:19:28;7.40;84.80
13458;DHT22;6801;53.018;11.560;2024-01-30T13:21:55;7.50;84.90
13458;DHT22;6801;53.018;11.560;2024-01-30T13:24:22;7.50;84.80
13458;DHT22;6801;53.018;11.560;2024-01-30T13:26:49;7.50;84.70
13458;DHT22;6801;53.018;11.560;2024-01-30T13:29:16;7.60;84.70
13458;DHT22;6801;53.018;11.560;2024-01-30T13:31:45;7.60;84.70
13458;DHT22;6801;53.018;11.560;2024-01-30T13:34:12;7.70;84.70
13458;DHT22;6801;53.018;11.560;2024-01-30T13:36:40;7.70;84.70
13458;DHT22;6801;53.018;11.560;2024-01-30T13:39:09;7.70;84.60
13458;DHT22;6801;53.018;11.560;2024-01-30T13:41:37;7.80;84.50
13458;DHT22;6801;53.018;11.560;2024-01-30T13:44:04;7.80;84.50
13458;DHT22;6801;53.018;11.560;2024-01-30T13:46:31;7.80;84.50
13458;DHT22;6801;53.018;11.560;2024-01-30T13:49:00;7.90;84.40
13458;DHT22;6801;53.018;11.560;2024-01-30T13:51:27;7.90;84.40
13458;DHT22;6801;53.018;11.560;2024-01-30T13:53:54;7.90;84.50
13458;DHT22;6801;53.018;11.560;2024-01-30T13:56:21;8.00;84.50
13458;DHT22;6801;53.018;11.560;2024-01-30T13:58:49;8.00;84.50
13458;DHT22;6801;53.018;11.560;2024-01-30T14:01:16;8.00;84.50
13458;DHT22;6801;53.018;11.560;2024-01-30T14:03:43;8.00;84.40
13458;DHT22;6801;53.018;11.560;2024-01-30T14:06:11;8.10;84.30
13458;DHT22;6801;53.018;11.560;2024-01-30T14:08:38;8.10;84.20
13458;DHT22;6801;53.018;11.560;2024-01-30T14:11:05;8.10;84.10
13458;DHT22;6801;53.018;11.560;2024-01-30T14:13:32;8.10;84.10
13458;DHT22;6801;53.018;11.560;2024-01-30T14:15:59;8.20;84.10
13458;DHT22;6801;53.018;11.560;2024-01-30T14:18:26;8.20;84.00
13458;DHT22;6801;53.018;11.560;2024-01-30T14:20:53;8.20;84.00
13458;DHT22;6801;53.018;11.560;2024-01-30T14:23:22;8.20;84.00
13458;DHT22;6801;53.018;11.560;2024-01-30T14:25:49;8.20;84.00
13458;DHT22;6801;53.018;11.560;2024-01-30T14:28:17;8.30;83.80
13458;DHT22;6801;53.018;11.560;2024-01-30T14:30:44;8.20;83.80
13458;DHT22;6801;53.018;11.560;2024-01-30T14:33:11;8.30;83.70
13458;DHT22;6801;53.018;11.560;2024-01-30T14:35:39;8.30;83.70
13458;DHT22;6801;53.018;11.560;2024-01-30T14:38:06;8.30;83.70
13458;DHT22;6801;53.018;11.560;2024-01-30T14:40:34;8.30;83.70
13458;DHT22;6801;53.018;11.560;2024-01-30T14:43:01;8.30;83.70
13458;DHT22;6801;53.018;11.560;2024-01-30T14:45:29;8.30;83.70
13458;DHT22;6801;53.018;11.560;2024-01-30T14:47:57;8.30;83.70
13458;DHT22;6801;53.018;11.560;2024-01-30T14:50:25;8.30;83.60
13458;DHT22;6801;53.018;11.560;2024-01-30T14:52:52;8.40;83.80
13458;DHT22;6801;53.018;11.560;2024-01-30T14:55:19;8.40;83.80
13458;DHT22;6801;53.018;11.560;2024-01-30T14:57:48;8.40;83.80
13458;DHT22;6801;53.018;11.560;2024-01-30T15:00:16;8.40;83.70
13458;DHT22;6801;53.018;11.560;2024-01-30T15:02:43;8.40;83.60
13458;DHT22;6801;53.018;11.560;2024-01-30T15:05:12;8.40;83.60
13458;DHT22;6801;53.018;11.560;2024-01-30T15:07:39;8.40;83.60
13458;DHT22;6801;53.018;11.560;2024-01-30T15:10:07;8.40;83.60
13458;DHT22;6801;53.018;11.560;2024-01-30T15:12:34;8.40;83.50
13458;DHT22;6801;53.018;11.560;2024-01-30T15:15:03;8.40;83.50
13458;DHT22;6801;53.018;11.560;2024-01-30T15:17:30;8.40;83.50
13458;DHT22;6801;53.018;11.560;2024-01-30T15:19:57;8.40;83.70
13458;DHT22;6801;53.018;11.560;2024-01-30T15:22:24;8.40;83.70
13458;DHT22;6801;53.018;11.560;2024-01-30T15:24:51;8.40;83.60
13458;DHT22;6801;53.018;11.560;2024-01-30T15:27:18;8.40;83.50
13458;DHT22;6801;53.018;11.560;2024-01-30T15:29:45;8.40;83.40
13458;DHT22;6801;53.018;11.560;2024-01-30T15:32:14;8.40;83.30
13458;DHT22;6801;53.018;11.560;2024-01-30T15:34:41;8.40;83.30
13458;DHT22;6801;53.018;11.560;2024-01-30T15:37:08;8.40;83.30
13458;DHT22;6801;53.018;11.560;2024-01-30T15:39:35;8.50;83.40
13458;DHT22;6801;53.018;11.560;2024-01-30T15:42:02;8.50;83.30
13458;DHT22;6801;53.018;11.560;2024-01-30T15:44:28;8.50;83.40
13458;DHT22;6801;53.018;11.560;2024-01-30T15:46:57;8.50;83.30